sensor_id;sensor_type;location;lat;lon;timestamp;temperature;humidity
60717;DHT22;46566;52.700;6.192;2022-09-01T00:02:24;15.00;99.90
60717;DHT22;46566;52.700;6.192;2022-09-01T00:04:53;14.90;99.90
60717;DHT22;46566;52.700;6.192;2022-09-01T00:07:22;14.90;99.90
60717;DHT22;46566;52.700;6.192;2022-09-01T00:09:47;14.90;99.90
60717;DHT22;46566;52.700;6.192;2022-09-01T00:12:13;14.90;99.90
60717;DHT22;46566;52.700;6.192;2022-09-01T00:14:40;14.90;99.90
60717;DHT22;46566;52.700;6.192;2022-09-01T00:17:09;14.90;99.90
60717;DHT22;46566;52.700;6.192;2022-09-01T00:19:35;14.90;99.90
60717;DHT22;46566;52.700;6.192;2022-09-01T00:22:02;14.90;99.90
60717;DHT22;46566;52.700;6.192;2022-09-01T00:24:29;14.80;99.90
60717;DHT22;46566;52.700;6.192;2022-09-01T00:26:55;14.80;99.90
60717;DHT22;46566;52.700;6.192;2022-09-01T00:29:22;14.70;99.90
60717;DHT22;46566;52.700;6.192;2022-09-01T00:31:48;14.70;99.90
60717;DHT22;46566;52.700;6.192;2022-09-01T00:34:15;14.70;99.90
60717;DHT22;46566;52.700;6.192;2022-09-01T00:36:41;14.70;99.90
60717;DHT22;46566;52.700;6.192;2022-09-01T00:39:07;14.60;99.90
60717;DHT22;46566;52.700;6.192;2022-09-01T00:41:36;14.60;99.90
60717;DHT22;46566;52.700;6.192;2022-09-01T00:44:14;14.50;99.90
60717;DHT22;46566;52.700;6.192;2022-09-01T00:46:45;14.50;99.90
60717;DHT22;46566;52.700;6.192;2022-09-01T00:49:15;14.40;99.90
60717;DHT22;46566;52.700;6.192;2022-09-01T00:51:44;14.40;99.90
60717;DHT22;46566;52.700;6.192;2022-09-01T00:54:17;14.40;99.90
60717;DHT22;46566;52.700;6.192;2022-09-01T00:56:44;14.40;99.90
60717;DHT22;46566;52.700;6.192;2022-09-01T00:59:11;14.30;99.90
60717;DHT22;46566;52.700;6.192;2022-09-01T01:01:38;14.30;99.90
60717;DHT22;46566;52.700;6.192;2022-09-01T01:04:06;14.30;99.90
60717;DHT22;46566;52.700;6.192;2022-09-01T01:06:48;14.30;99.90
60717;DHT22;46566;52.700;6.192;2022-09-01T01:09:19;14.30;99.90
60717;DHT22;46566;52.700;6.192;2022-09-01T01:11:47;14.30;99.90
60717;DHT22;46566;52.700;6.192;2022-09-01T01:14:15;14.30;99.90
60717;DHT22;46566;52.700;6.192;2022-09-01T01:16:44;14.40;99.90
60717;DHT22;46566;52.700;6.192;2022-09-01T01:22:32;14.30;99.90
60717;DHT22;46566;52.700;6.192;2022-09-01T01:25:18;14.30;99.90
60717;DHT22;46566;52.700;6.192;2022-09-01T01:27:46;14.30;99.90
60717;DHT22;46566;52.700;6.192;2022-09-01T01:30:12;14.30;99.90
60717;DHT22;46566;52.700;6.192;2022-09-01T01:32:39;14.30;99.90
60717;DHT22;46566;52.700;6.192;2022-09-01T01:35:09;14.30;99.90
60717;DHT22;46566;52.700;6.192;2022-09-01T01:37:38;14.30;99.90
60717;DHT22;46566;52.700;6.192;2022-09-01T01:40:04;14.20;99.90
60717;DHT22;46566;52.700;6.192;2022-09-01T01:42:32;14.20;99.90
60717;DHT22;46566;52.700;6.192;2022-09-01T01:44:58;14.20;99.90
60717;DHT22;46566;52.700;6.192;2022-09-01T01:47:24;14.20;99.90
60717;DHT22;46566;52.700;6.192;2022-09-01T01:49:50;14.20;99.90
60717;DHT22;46566;52.700;6.192;2022-09-01T01:52:17;14.20;99.90
60717;DHT22;46566;52.700;6.192;2022-09-01T01:54:45;14.10;99.90
60717;DHT22;46566;52.700;6.192;2022-09-01T01:57:12;14.10;99.90
60717;DHT22;46566;52.700;6.192;2022-09-01T01:59:42;14.10;99.90
60717;DHT22;46566;52.700;6.192;2022-09-01T02:02:08;14.10;99.90
60717;DHT22;46566;52.700;6.192;2022-09-01T02:04:35;14.10;99.90
60717;DHT22;46566;52.700;6.192;2022-09-01T02:07:12;14.00;99.90
60717;DHT22;46566;52.700;6.192;2022-09-01T02:09:39;14.00;99.90
60717;DHT22;46566;52.700;6.192;2022-09-01T02:12:08;14.00;99.90
60717;DHT22;46566;52.700;6.192;2022-09-01T02:14:34;14.00;99.90
60717;DHT22;46566;52.700;6.192;2022-09-01T02:17:00;13.90;99.90
60717;DHT22;46566;52.700;6.192;2022-09-01T02:19:28;13.90;99.90
60717;DHT22;46566;52.700;6.192;2022-09-01T02:21:53;13.90;99.90
60717;DHT22;46566;52.700;6.192;2022-09-01T02:24:21;13.90;99.90
60717;DHT22;46566;52.700;6.192;2022-09-01T02:26:48;13.80;99.90
60717;DHT22;46566;52.700;6.192;2022-09-01T02:29:19;13.80;99.90
60717;DHT22;46566;52.700;6.192;2022-09-01T02:31:49;13.80;99.90
60717;DHT22;46566;52.700;6.192;2022-09-01T02:34:17;13.80;99.90
60717;DHT22;46566;52.700;6.192;2022-09-01T02:36:47;13.80;99.90
60717;DHT22;46566;52.700;6.192;2022-09-01T02:39:18;13.80;99.90
60717;DHT22;46566;52.700;6.192;2022-09-01T02:41:45;13.70;99.90
60717;DHT22;46566;52.700;6.192;2022-09-01T02:44:11;13.70;99.90
60717;DHT22;46566;52.700;6.192;2022-09-01T02:46:41;13.70;99.90
60717;DHT22;46566;52.700;6.192;2022-09-01T02:49:13;13.70;99.90
60717;DHT22;46566;52.700;6.192;2022-09-01T02:51:43;13.70;99.90
60717;DHT22;46566;52.700;6.192;2022-09-01T02:54:10;13.60;99.90
60717;DHT22;46566;52.700;6.192;2022-09-01T02:56:40;13.60;99.90
60717;DHT22;46566;52.700;6.192;2022-09-01T02:59:05;13.50;99.90
60717;DHT22;46566;52.700;6.192;2022-09-01T03:01:37;13.50;99.90
60717;DHT22;46566;52.700;6.192;2022-09-01T03:04:06;13.50;99.90
60717;DHT22;46566;52.700;6.192;2022-09-01T03:06:34;13.50;99.90
60717;DHT22;46566;52.700;6.192;2022-09-01T03:09:06;13.50;99.90
60717;DHT22;46566;52.700;6.192;2022-09-01T03:11:35;13.40;99.90
60717;DHT22;46566;52.700;6.192;2022-09-01T03:14:02;13.40;99.90
60717;DHT22;46566;52.700;6.192;2022-09-01T03:16:28;13.40;99.90
60717;DHT22;46566;52.700;6.192;2022-09-01T03:18:59;13.30;99.90
60717;DHT22;46566;52.700;6.192;2022-09-01T03:21:29;13.30;99.90
60717;DHT22;46566;52.700;6.192;2022-09-01T03:23:57;13.30;99.90
60717;DHT22;46566;52.700;6.192;2022-09-01T03:26:24;13.20;99.90
60717;DHT22;46566;52.700;6.192;2022-09-01T03:28:50;13.20;99.90
60717;DHT22;46566;52.700;6.192;2022-09-01T03:31:18;13.20;99.90
60717;DHT22;46566;52.700;6.192;2022-09-01T03:33:45;13.20;99.90
60717;DHT22;46566;52.700;6.192;2022-09-01T03:36:19;13.10;99.90
60717;DHT22;46566;52.700;6.192;2022-09-01T03:38:47;13.10;99.90
60717;DHT22;46566;52.700;6.192;2022-09-01T03:41:18;13.10;99.90
60717;DHT22;46566;52.700;6.192;2022-09-01T03:43:44;13.10;99.90
60717;DHT22;46566;52.700;6.192;2022-09-01T03:46:11;13.10;99.90
60717;DHT22;46566;52.700;6.192;2022-09-01T03:48:45;13.10;99.90
60717;DHT22;46566;52.700;6.192;2022-09-01T03:51:12;13.10;99.90
60717;DHT22;46566;52.700;6.192;2022-09-01T03:53:39;13.00;99.90
60717;DHT22;46566;52.700;6.192;2022-09-01T03:56:05;13.00;99.90
60717;DHT22;46566;52.700;6.192;2022-09-01T03:58:34;13.00;99.90
60717;DHT22;46566;52.700;6.192;2022-09-01T04:01:05;12.90;99.90
60717;DHT22;46566;52.700;6.192;2022-09-01T04:03:32;12.90;99.90
60717;DHT22;46566;52.700;6.192;2022-09-01T04:06:00;12.90;99.90
60717;DHT22;46566;52.700;6.192;2022-09-01T04:08:27;12.80;99.90
60717;DHT22;46566;52.700;6.192;2022-09-01T04:10:59;12.80;99.90
60717;DHT22;46566;52.700;6.192;2022-09-01T04:13:31;12.80;99.90
60717;DHT22;46566;52.700;6.192;2022-09-01T04:15:58;12.80;99.90
60717;DHT22;46566;52.700;6.192;2022-09-01T04:18:25;12.80;99.90
60717;DHT22;46566;52.700;6.192;2022-09-01T04:20:54;12.70;99.90
60717;DHT22;46566;52.700;6.192;2022-09-01T04:23:26;12.70;99.90
60717;DHT22;46566;52.700;6.192;2022-09-01T04:26:08;12.70;99.90
60717;DHT22;46566;52.700;6.192;2022-09-01T04:28:39;12.60;99.90
60717;DHT22;46566;52.700;6.192;2022-09-01T04:31:08;12.70;99.90
60717;DHT22;46566;52.700;6.192;2022-09-01T04:33:37;12.70;99.90
60717;DHT22;46566;52.700;6.192;2022-09-01T04:38:38;12.50;99.90
60717;DHT22;46566;52.700;6.192;2022-09-01T04:41:05;12.50;99.90
60717;DHT22;46566;52.700;6.192;2022-09-01T04:43:33;12.40;99.90
60717;DHT22;46566;52.700;6.192;2022-09-01T04:45:59;12.40;99.90
60717;DHT22;46566;52.700;6.192;2022-09-01T04:48:25;12.40;99.90
60717;DHT22;46566;52.700;6.192;2022-09-01T04:50:51;12.50;99.90
60717;DHT22;46566;52.700;6.192;2022-09-01T04:53:30;12.40;99.90
60717;DHT22;46566;52.700;6.192;2022-09-01T04:56:02;12.40;99.90
60717;DHT22;46566;52.700;6.192;2022-09-01T04:58:30;12.40;99.90
60717;DHT22;46566;52.700;6.192;2022-09-01T05:00:55;12.40;99.90
60717;DHT22;46566;52.700;6.192;2022-09-01T05:03:22;12.40;99.90
60717;DHT22;46566;52.700;6.192;2022-09-01T05:06:02;12.30;99.90
60717;DHT22;46566;52.700;6.192;2022-09-01T05:08:29;12.30;99.90
60717;DHT22;46566;52.700;6.192;2022-09-01T05:11:03;12.30;99.90
60717;DHT22;46566;52.700;6.192;2022-09-01T05:13:38;12.30;99.90
60717;DHT22;46566;52.700;6.192;2022-09-01T05:16:07;12.30;99.90
60717;DHT22;46566;52.700;6.192;2022-09-01T05:18:39;12.40;99.90
60717;DHT22;46566;52.700;6.192;2022-09-01T05:21:07;12.40;99.90
60717;DHT22;46566;52.700;6.192;2022-09-01T05:23:34;12.40;99.90
60717;DHT22;46566;52.700;6.192;2022-09-01T05:26:01;12.40;99.90
60717;DHT22;46566;52.700;6.192;2022-09-01T05:28:28;12.40;99.90
60717;DHT22;46566;52.700;6.192;2022-09-01T05:30:54;12.40;99.90
60717;DHT22;46566;52.700;6.192;2022-09-01T05:33:20;12.40;99.90
60717;DHT22;46566;52.700;6.192;2022-09-01T05:35:56;12.50;99.90
60717;DHT22;46566;52.700;6.192;2022-09-01T05:38:26;12.50;99.90
60717;DHT22;46566;52.700;6.192;2022-09-01T05:40:58;12.50;99.90
60717;DHT22;46566;52.700;6.192;2022-09-01T05:43:31;12.50;99.90
60717;DHT22;46566;52.700;6.192;2022-09-01T05:45:59;12.50;99.90
60717;DHT22;46566;52.700;6.192;2022-09-01T05:48:29;12.50;99.90
60717;DHT22;46566;52.700;6.192;2022-09-01T05:50:57;12.50;99.90
60717;DHT22;46566;52.700;6.192;2022-09-01T05:53:24;12.50;99.90
60717;DHT22;46566;52.700;6.192;2022-09-01T05:55:51;12.60;99.90
60717;DHT22;46566;52.700;6.192;2022-09-01T05:58:24;12.60;99.90
60717;DHT22;46566;52.700;6.192;2022-09-01T06:00:52;12.60;99.90
60717;DHT22;46566;52.700;6.192;2022-09-01T06:03:21;12.70;99.90
60717;DHT22;46566;52.700;6.192;2022-09-01T06:05:49;12.70;99.90
60717;DHT22;46566;52.700;6.192;2022-09-01T06:08:22;12.80;99.90
60717;DHT22;46566;52.700;6.192;2022-09-01T06:10:50;12.80;99.90
60717;DHT22;46566;52.700;6.192;2022-09-01T06:13:17;12.90;99.90
60717;DHT22;46566;52.700;6.192;2022-09-01T06:15:50;12.90;99.90
60717;DHT22;46566;52.700;6.192;2022-09-01T06:18:19;12.90;99.90
60717;DHT22;46566;52.700;6.192;2022-09-01T06:20:53;13.00;99.90
60717;DHT22;46566;52.700;6.192;2022-09-01T06:23:20;13.00;99.90
60717;DHT22;46566;52.700;6.192;2022-09-01T06:25:46;13.10;99.90
60717;DHT22;46566;52.700;6.192;2022-09-01T06:28:16;13.20;99.90
60717;DHT22;46566;52.700;6.192;2022-09-01T06:30:43;13.20;99.90
60717;DHT22;46566;52.700;6.192;2022-09-01T06:33:11;13.20;99.90
60717;DHT22;46566;52.700;6.192;2022-09-01T06:35:42;13.30;99.90
60717;DHT22;46566;52.700;6.192;2022-09-01T06:38:11;13.30;99.90
60717;DHT22;46566;52.700;6.192;2022-09-01T06:40:46;13.40;99.90
60717;DHT22;46566;52.700;6.192;2022-09-01T06:43:14;13.50;99.90
60717;DHT22;46566;52.700;6.192;2022-09-01T06:45:46;13.50;99.90
60717;DHT22;46566;52.700;6.192;2022-09-01T06:48:19;13.60;99.90
60717;DHT22;46566;52.700;6.192;2022-09-01T06:50:46;13.70;99.90
60717;DHT22;46566;52.700;6.192;2022-09-01T06:53:12;13.70;99.90
60717;DHT22;46566;52.700;6.192;2022-09-01T06:55:47;13.80;99.90
60717;DHT22;46566;52.700;6.192;2022-09-01T06:58:14;13.90;99.90
60717;DHT22;46566;52.700;6.192;2022-09-01T07:00:46;14.00;99.90
60717;DHT22;46566;52.700;6.192;2022-09-01T07:03:14;14.00;99.90
60717;DHT22;46566;52.700;6.192;2022-09-01T07:05:52;14.10;99.90
60717;DHT22;46566;52.700;6.192;2022-09-01T07:08:25;14.20;99.90
60717;DHT22;46566;52.700;6.192;2022-09-01T07:11:20;14.30;99.90
60717;DHT22;46566;52.700;6.192;2022-09-01T07:13:50;14.40;99.90
60717;DHT22;46566;52.700;6.192;2022-09-01T07:16:19;14.40;99.90
60717;DHT22;46566;52.700;6.192;2022-09-01T07:18:48;14.50;99.90
60717;DHT22;46566;52.700;6.192;2022-09-01T07:21:16;14.60;99.90
60717;DHT22;46566;52.700;6.192;2022-09-01T07:23:45;14.70;99.90
60717;DHT22;46566;52.700;6.192;2022-09-01T07:26:11;14.80;99.90
60717;DHT22;46566;52.700;6.192;2022-09-01T07:28:46;14.90;99.90
60717;DHT22;46566;52.700;6.192;2022-09-01T07:31:18;14.90;99.90
60717;DHT22;46566;52.700;6.192;2022-09-01T07:33:47;15.00;99.90
60717;DHT22;46566;52.700;6.192;2022-09-01T07:36:18;15.10;99.90
60717;DHT22;46566;52.700;6.192;2022-09-01T07:38:46;15.20;99.90
60717;DHT22;46566;52.700;6.192;2022-09-01T07:41:24;15.40;99.90
60717;DHT22;46566;52.700;6.192;2022-09-01T07:44:09;15.60;99.90
60717;DHT22;46566;52.700;6.192;2022-09-01T07:46:56;15.70;99.90
60717;DHT22;46566;52.700;6.192;2022-09-01T07:49:22;15.90;99.90
60717;DHT22;46566;52.700;6.192;2022-09-01T07:51:50;16.00;99.90
60717;DHT22;46566;52.700;6.192;2022-09-01T07:54:19;16.20;99.90
60717;DHT22;46566;52.700;6.192;2022-09-01T07:56:51;16.40;99.90
60717;DHT22;46566;52.700;6.192;2022-09-01T07:59:20;16.60;99.90
60717;DHT22;46566;52.700;6.192;2022-09-01T08:01:51;17.00;99.90
60717;DHT22;46566;52.700;6.192;2022-09-01T08:04:18;18.00;99.90
60717;DHT22;46566;52.700;6.192;2022-09-01T08:06:49;19.60;99.90
60717;DHT22;46566;52.700;6.192;2022-09-01T08:09:15;21.10;99.90
60717;DHT22;46566;52.700;6.192;2022-09-01T08:11:40;22.40;99.20
60717;DHT22;46566;52.700;6.192;2022-09-01T08:14:07;23.50;91.10
60717;DHT22;46566;52.700;6.192;2022-09-01T08:16:33;24.50;74.80
60717;DHT22;46566;52.700;6.192;2022-09-01T08:19:01;25.30;69.10
60717;DHT22;46566;52.700;6.192;2022-09-01T08:21:31;25.90;66.50
60717;DHT22;46566;52.700;6.192;2022-09-01T08:24:01;26.40;61.40
60717;DHT22;46566;52.700;6.192;2022-09-01T08:26:27;27.00;62.90
60717;DHT22;46566;52.700;6.192;2022-09-01T08:28:57;27.70;60.70
60717;DHT22;46566;52.700;6.192;2022-09-01T08:31:28;28.20;56.80
60717;DHT22;46566;52.700;6.192;2022-09-01T08:33:54;28.80;56.00
60717;DHT22;46566;52.700;6.192;2022-09-01T08:36:21;29.20;54.70
60717;DHT22;46566;52.700;6.192;2022-09-01T08:38:47;29.60;51.10
60717;DHT22;46566;52.700;6.192;2022-09-01T08:41:25;29.90;51.00
60717;DHT22;46566;52.700;6.192;2022-09-01T08:45:06;30.30;51.50
60717;DHT22;46566;52.700;6.192;2022-09-01T08:47:08;30.90;49.30
60717;DHT22;46566;52.700;6.192;2022-09-01T08:49:37;31.30;47.70
60717;DHT22;46566;52.700;6.192;2022-09-01T08:52:39;31.60;47.70
60717;DHT22;46566;52.700;6.192;2022-09-01T08:55:27;31.80;45.80
60717;DHT22;46566;52.700;6.192;2022-09-01T08:57:56;32.00;42.80
60717;DHT22;46566;52.700;6.192;2022-09-01T09:00:27;31.90;43.80
60717;DHT22;46566;52.700;6.192;2022-09-01T09:08:35;31.80;44.20
60717;DHT22;46566;52.700;6.192;2022-09-01T09:17:07;31.50;40.90
60717;DHT22;46566;52.700;6.192;2022-09-01T09:19:36;31.10;42.60
60717;DHT22;46566;52.700;6.192;2022-09-01T09:22:12;30.50;43.50
60717;DHT22;46566;52.700;6.192;2022-09-01T09:24:59;29.90;44.80
60717;DHT22;46566;52.700;6.192;2022-09-01T09:27:39;28.80;45.50
60717;DHT22;46566;52.700;6.192;2022-09-01T09:30:09;28.20;46.30
60717;DHT22;46566;52.700;6.192;2022-09-01T09:32:51;27.90;47.70
60717;DHT22;46566;52.700;6.192;2022-09-01T09:35:27;27.50;46.90
60717;DHT22;46566;52.700;6.192;2022-09-01T09:37:55;27.50;48.90
60717;DHT22;46566;52.700;6.192;2022-09-01T09:40:25;27.70;49.50
60717;DHT22;46566;52.700;6.192;2022-09-01T09:45:37;27.50;47.80
60717;DHT22;46566;52.700;6.192;2022-09-01T09:48:09;27.40;48.30
60717;DHT22;46566;52.700;6.192;2022-09-01T09:50:40;27.40;48.70
60717;DHT22;46566;52.700;6.192;2022-09-01T09:53:29;27.50;48.80
60717;DHT22;46566;52.700;6.192;2022-09-01T09:56:16;27.40;48.40
60717;DHT22;46566;52.700;6.192;2022-09-01T09:58:44;27.50;49.20
60717;DHT22;46566;52.700;6.192;2022-09-01T10:01:34;27.50;48.40
60717;DHT22;46566;52.700;6.192;2022-09-01T10:04:00;27.30;48.20
60717;DHT22;46566;52.700;6.192;2022-09-01T10:06:42;27.40;48.10
60717;DHT22;46566;52.700;6.192;2022-09-01T10:09:35;27.30;47.80
60717;DHT22;46566;52.700;6.192;2022-09-01T10:12:03;27.10;47.50
60717;DHT22;46566;52.700;6.192;2022-09-01T10:14:39;27.20;48.50
60717;DHT22;46566;52.700;6.192;2022-09-01T10:17:16;27.20;47.70
60717;DHT22;46566;52.700;6.192;2022-09-01T10:19:58;26.90;47.30
60717;DHT22;46566;52.700;6.192;2022-09-01T10:22:30;26.80;48.20
60717;DHT22;46566;52.700;6.192;2022-09-01T10:24:56;26.80;48.30
60717;DHT22;46566;52.700;6.192;2022-09-01T10:27:26;27.00;48.20
60717;DHT22;46566;52.700;6.192;2022-09-01T10:30:17;27.20;47.90
60717;DHT22;46566;52.700;6.192;2022-09-01T10:35:21;27.10;46.20
60717;DHT22;46566;52.700;6.192;2022-09-01T10:37:49;27.10;47.00
60717;DHT22;46566;52.700;6.192;2022-09-01T10:42:48;27.40;46.70
60717;DHT22;46566;52.700;6.192;2022-09-01T10:45:40;27.40;46.40
60717;DHT22;46566;52.700;6.192;2022-09-01T10:48:35;27.30;44.50
60717;DHT22;46566;52.700;6.192;2022-09-01T10:53:42;26.60;45.60
60717;DHT22;46566;52.700;6.192;2022-09-01T10:56:22;26.60;45.90
60717;DHT22;46566;52.700;6.192;2022-09-01T11:02:05;26.10;46.60
60717;DHT22;46566;52.700;6.192;2022-09-01T11:07:29;25.70;47.10
60717;DHT22;46566;52.700;6.192;2022-09-01T11:10:25;25.50;47.40
60717;DHT22;46566;52.700;6.192;2022-09-01T11:18:00;26.70;46.50
60717;DHT22;46566;52.700;6.192;2022-09-01T11:20:37;27.00;47.30
60717;DHT22;46566;52.700;6.192;2022-09-01T11:23:09;27.50;44.70
60717;DHT22;46566;52.700;6.192;2022-09-01T11:25:50;27.60;44.40
60717;DHT22;46566;52.700;6.192;2022-09-01T11:33:52;27.80;44.70
60717;DHT22;46566;52.700;6.192;2022-09-01T11:46:46;28.10;43.00
60717;DHT22;46566;52.700;6.192;2022-09-01T11:49:36;28.00;43.00
60717;DHT22;46566;52.700;6.192;2022-09-01T11:52:04;28.10;42.60
60717;DHT22;46566;52.700;6.192;2022-09-01T11:54:40;27.80;42.70
60717;DHT22;46566;52.700;6.192;2022-09-01T11:57:19;27.70;42.70
60717;DHT22;46566;52.700;6.192;2022-09-01T11:59:45;27.60;40.40
60717;DHT22;46566;52.700;6.192;2022-09-01T12:02:19;27.70;42.30
60717;DHT22;46566;52.700;6.192;2022-09-01T12:04:48;27.70;43.20
60717;DHT22;46566;52.700;6.192;2022-09-01T12:07:43;27.40;44.50
60717;DHT22;46566;52.700;6.192;2022-09-01T12:13:06;27.00;43.90
60717;DHT22;46566;52.700;6.192;2022-09-01T12:15:37;26.80;43.20
60717;DHT22;46566;52.700;6.192;2022-09-01T12:18:21;26.90;43.70
60717;DHT22;46566;52.700;6.192;2022-09-01T12:20:49;27.10;42.60
60717;DHT22;46566;52.700;6.192;2022-09-01T12:26:06;27.40;42.80
60717;DHT22;46566;52.700;6.192;2022-09-01T12:28:34;27.50;42.00
60717;DHT22;46566;52.700;6.192;2022-09-01T12:31:03;27.40;42.10
60717;DHT22;46566;52.700;6.192;2022-09-01T12:33:31;27.50;42.50
60717;DHT22;46566;52.700;6.192;2022-09-01T12:36:32;27.70;42.60
60717;DHT22;46566;52.700;6.192;2022-09-01T12:39:23;27.80;42.50
60717;DHT22;46566;52.700;6.192;2022-09-01T12:47:13;27.10;42.80
60717;DHT22;46566;52.700;6.192;2022-09-01T12:49:44;27.00;43.40
60717;DHT22;46566;52.700;6.192;2022-09-01T12:54:48;27.40;42.90
60717;DHT22;46566;52.700;6.192;2022-09-01T13:00:35;28.00;42.20
60717;DHT22;46566;52.700;6.192;2022-09-01T13:08:02;28.20;41.70
60717;DHT22;46566;52.700;6.192;2022-09-01T13:13:28;28.10;42.40
60717;DHT22;46566;52.700;6.192;2022-09-01T13:15:57;27.70;43.60
60717;DHT22;46566;52.700;6.192;2022-09-01T13:18:26;27.50;42.80
60717;DHT22;46566;52.700;6.192;2022-09-01T13:20:53;27.20;42.90
60717;DHT22;46566;52.700;6.192;2022-09-01T13:23:20;27.20;43.00
60717;DHT22;46566;52.700;6.192;2022-09-01T13:25:47;27.30;43.30
60717;DHT22;46566;52.700;6.192;2022-09-01T13:28:14;27.30;43.30
60717;DHT22;46566;52.700;6.192;2022-09-01T13:30:48;27.30;43.20
60717;DHT22;46566;52.700;6.192;2022-09-01T13:33:17;27.10;42.90
60717;DHT22;46566;52.700;6.192;2022-09-01T13:35:43;26.90;43.60
60717;DHT22;46566;52.700;6.192;2022-09-01T13:38:09;26.70;43.60
60717;DHT22;46566;52.700;6.192;2022-09-01T13:40:35;26.60;43.80
60717;DHT22;46566;52.700;6.192;2022-09-01T13:43:01;26.50;44.30
60717;DHT22;46566;52.700;6.192;2022-09-01T13:45:29;26.60;44.40
60717;DHT22;46566;52.700;6.192;2022-09-01T13:47:54;26.80;43.60
60717;DHT22;46566;52.700;6.192;2022-09-01T13:50:21;26.80;42.70
60717;DHT22;46566;52.700;6.192;2022-09-01T13:52:51;26.90;43.60
60717;DHT22;46566;52.700;6.192;2022-09-01T13:55:24;27.00;43.30
60717;DHT22;46566;52.700;6.192;2022-09-01T13:57:50;26.90;41.60
60717;DHT22;46566;52.700;6.192;2022-09-01T14:00:19;26.60;42.50
60717;DHT22;46566;52.700;6.192;2022-09-01T14:02:45;26.40;42.60
60717;DHT22;46566;52.700;6.192;2022-09-01T14:05:16;26.20;43.00
60717;DHT22;46566;52.700;6.192;2022-09-01T14:07:43;26.30;44.00
60717;DHT22;46566;52.700;6.192;2022-09-01T14:10:09;26.60;43.40
60717;DHT22;46566;52.700;6.192;2022-09-01T14:12:35;26.80;42.90
60717;DHT22;46566;52.700;6.192;2022-09-01T14:15:00;27.00;42.70
60717;DHT22;46566;52.700;6.192;2022-09-01T14:17:26;27.10;42.50
60717;DHT22;46566;52.700;6.192;2022-09-01T14:19:52;27.20;42.40
60717;DHT22;46566;52.700;6.192;2022-09-01T14:22:18;27.40;42.50
60717;DHT22;46566;52.700;6.192;2022-09-01T14:24:44;27.30;41.60
60717;DHT22;46566;52.700;6.192;2022-09-01T14:27:10;27.30;41.70
60717;DHT22;46566;52.700;6.192;2022-09-01T14:29:36;27.30;41.10
60717;DHT22;46566;52.700;6.192;2022-09-01T14:32:02;27.20;41.60
60717;DHT22;46566;52.700;6.192;2022-09-01T14:34:28;27.40;42.30
60717;DHT22;46566;52.700;6.192;2022-09-01T14:36:57;27.50;41.70
60717;DHT22;46566;52.700;6.192;2022-09-01T14:39:24;27.40;41.30
60717;DHT22;46566;52.700;6.192;2022-09-01T14:41:50;27.20;40.30
60717;DHT22;46566;52.700;6.192;2022-09-01T14:44:15;27.00;41.30
60717;DHT22;46566;52.700;6.192;2022-09-01T14:46:41;27.00;41.70
60717;DHT22;46566;52.700;6.192;2022-09-01T14:49:08;27.10;41.30
60717;DHT22;46566;52.700;6.192;2022-09-01T14:51:36;27.20;42.00
60717;DHT22;46566;52.700;6.192;2022-09-01T14:54:06;27.20;41.70
60717;DHT22;46566;52.700;6.192;2022-09-01T14:59:20;26.80;42.10
60717;DHT22;46566;52.700;6.192;2022-09-01T15:01:47;26.60;41.60
60717;DHT22;46566;52.700;6.192;2022-09-01T15:04:13;26.40;42.30
60717;DHT22;46566;52.700;6.192;2022-09-01T15:06:39;26.40;42.50
60717;DHT22;46566;52.700;6.192;2022-09-01T15:09:05;26.20;42.10
60717;DHT22;46566;52.700;6.192;2022-09-01T15:11:30;26.00;42.10
60717;DHT22;46566;52.700;6.192;2022-09-01T15:13:56;26.00;43.00
60717;DHT22;46566;52.700;6.192;2022-09-01T15:16:24;26.00;42.40
60717;DHT22;46566;52.700;6.192;2022-09-01T15:18:52;25.80;42.70
60717;DHT22;46566;52.700;6.192;2022-09-01T15:21:40;25.80;42.50
60717;DHT22;46566;52.700;6.192;2022-09-01T15:24:14;25.70;43.30
60717;DHT22;46566;52.700;6.192;2022-09-01T15:26:41;25.70;42.60
60717;DHT22;46566;52.700;6.192;2022-09-01T15:29:09;25.60;42.80
60717;DHT22;46566;52.700;6.192;2022-09-01T15:31:38;25.50;42.80
60717;DHT22;46566;52.700;6.192;2022-09-01T15:34:04;25.40;43.10
60717;DHT22;46566;52.700;6.192;2022-09-01T15:36:35;25.30;43.10
60717;DHT22;46566;52.700;6.192;2022-09-01T15:39:02;25.30;43.50
60717;DHT22;46566;52.700;6.192;2022-09-01T15:41:30;25.20;43.80
60717;DHT22;46566;52.700;6.192;2022-09-01T15:43:57;25.10;43.70
60717;DHT22;46566;52.700;6.192;2022-09-01T15:46:23;25.10;43.90
60717;DHT22;46566;52.700;6.192;2022-09-01T15:48:57;25.00;43.60
60717;DHT22;46566;52.700;6.192;2022-09-01T15:54:03;24.70;43.90
60717;DHT22;46566;52.700;6.192;2022-09-01T15:56:31;24.60;44.00
60717;DHT22;46566;52.700;6.192;2022-09-01T15:58:58;24.50;44.90
60717;DHT22;46566;52.700;6.192;2022-09-01T16:01:25;24.50;44.90
60717;DHT22;46566;52.700;6.192;2022-09-01T16:03:51;24.40;44.90
60717;DHT22;46566;52.700;6.192;2022-09-01T16:06:17;24.30;45.20
60717;DHT22;46566;52.700;6.192;2022-09-01T16:08:43;24.30;45.50
60717;DHT22;46566;52.700;6.192;2022-09-01T16:11:09;24.30;45.00
60717;DHT22;46566;52.700;6.192;2022-09-01T16:13:39;24.10;45.10
60717;DHT22;46566;52.700;6.192;2022-09-01T16:18:42;24.10;45.10
60717;DHT22;46566;52.700;6.192;2022-09-01T16:21:28;24.00;45.70
60717;DHT22;46566;52.700;6.192;2022-09-01T16:23:55;23.90;46.00
60717;DHT22;46566;52.700;6.192;2022-09-01T16:26:21;23.90;46.10
60717;DHT22;46566;52.700;6.192;2022-09-01T16:28:51;23.90;46.40
60717;DHT22;46566;52.700;6.192;2022-09-01T16:31:24;23.90;46.50
60717;DHT22;46566;52.700;6.192;2022-09-01T16:33:52;23.80;46.00
60717;DHT22;46566;52.700;6.192;2022-09-01T16:47:24;23.60;46.20
60717;DHT22;46566;52.700;6.192;2022-09-01T16:50:19;23.60;46.70
60717;DHT22;46566;52.700;6.192;2022-09-01T16:53:02;23.50;46.50
60717;DHT22;46566;52.700;6.192;2022-09-01T16:55:58;23.50;46.80
60717;DHT22;46566;52.700;6.192;2022-09-01T17:01:33;23.40;47.00
60717;DHT22;46566;52.700;6.192;2022-09-01T17:05:10;23.40;47.10
60717;DHT22;46566;52.700;6.192;2022-09-01T17:07:24;23.30;47.20
60717;DHT22;46566;52.700;6.192;2022-09-01T17:09:58;23.20;46.70
60717;DHT22;46566;52.700;6.192;2022-09-01T17:12:49;23.20;47.20
60717;DHT22;46566;52.700;6.192;2022-09-01T17:15:19;23.10;47.20
60717;DHT22;46566;52.700;6.192;2022-09-01T17:18:15;23.10;47.70
60717;DHT22;46566;52.700;6.192;2022-09-01T17:20:47;23.00;47.60
60717;DHT22;46566;52.700;6.192;2022-09-01T17:23:23;23.00;47.80
60717;DHT22;46566;52.700;6.192;2022-09-01T17:26:27;23.00;47.90
60717;DHT22;46566;52.700;6.192;2022-09-01T17:29:16;22.90;48.00
60717;DHT22;46566;52.700;6.192;2022-09-01T17:51:13;22.60;49.10
60717;DHT22;46566;52.700;6.192;2022-09-01T18:05:10;22.20;49.80
60717;DHT22;46566;52.700;6.192;2022-09-01T18:10:31;22.10;50.10